Terminal Aerodrome Forecast
Issued by NWS

Current Version | Previous Version | Graphics & Text | Print | Product List | Glossary On
Versions: 1 2 3 4 5 6 7 8 9 10 11 12 13 14 15 16 17 18 19 20 21 22
000
FTUS41 KPBZ 212326
TAFMGW
TAF
KMGW 212326Z 2200/2224 30005KT P6SM BKN060
     FM220200 28004KT P6SM SCT060
     FM221600 26011G18KT P6SM VCSH OVC040
     FM221900 29014G21KT P6SM VCSH BKN050=

USA.gov is the U.S. government's official web portal to all federal, state and local government web resources and services.